This is the latest recevied weather packets stored in our database for station/object EA4BCR. If no packets are shown the sender has not sent any weather packets the latest 10 day(s).
| Time | Temp. | Humidity | Pressure | Rain* | Wind** | Luminosity | Snow |
|---|---|---|---|---|---|---|---|
| 1787404809 | 32.22° C | 36% | 1009.5 hPa | - | - | - | - |
| 1787404209 | 32.78° C | 34% | 1009.4 hPa | - | - | - | - |
| 1787403609 | 32.22° C | 37% | 1009.6 hPa | - | - | - | - |
| 1787403009 | 33.33° C | 34% | 1009.3 hPa | - | - | - | - |
| 1787402409 | 31.11° C | 35% | 1010.2 hPa | - | - | - | - |
| 1787401809 | 32.22° C | 35% | 1009.7 hPa | - | - | - | - |
| 1787401209 | 31.11° C | 37% | 1010.2 hPa | - | - | - | - |
| 1787400612 | 32.22° C | 38% | 1010 hPa | - | - | - | - |
| 1787400009 | 32.22° C | 37% | 1010.1 hPa | - | - | - | - |
| 1787399409 | 34.44° C | 37% | 1009.4 hPa | - | - | - | - |
| 1787398809 | 32.78° C | 37% | 1010 hPa | - | - | - | - |
| 1787398209 | 31.11° C | 38% | 1010.7 hPa | - | - | - | - |
| 1787397609 | 30.56° C | 40% | 1010.9 hPa | - | - | - | - |
| 1787397009 | 31.67° C | 40% | 1010.6 hPa | - | - | - | - |
| 1787396409 | 32.22° C | 41% | 1010.7 hPa | - | - | - | - |
| 1787395809 | 30° C | 45% | 1011.6 hPa | - | - | - | - |
| 1787395209 | 29.44° C | 50% | 1011.9 hPa | - | - | - | - |
| 1787394609 | 28.33° C | 59% | 1012.3 hPa | - | - | - | - |
| 1787394009 | 27.22° C | 49% | 1012.6 hPa | - | - | - | - |
| 1787393409 | 28.89° C | 47% | 1012 hPa | - | - | - | - |
| 1787392809 | 28.89° C | 51% | 1012.2 hPa | - | - | - | - |
| 1787392209 | 28.89° C | 58% | 1012.3 hPa | - | - | - | - |
| 1787391609 | 28.33° C | 66% | 1012.4 hPa | - | - | - | - |
| 1787391009 | 27.78° C | 54% | 1012.6 hPa | - | - | - | - |
| 1787390410 | 26.67° C | 61% | 1012.9 hPa | - | - | - | - |
* Rain since midnight (hover to see other rain measurements)
** Current wind speed in m/s (hover to see current wind gust speed)